Time,TemperatureF,DewpointF,PressureIn,WindDirection,WindDirectionDegrees,WindSpeedMPH,WindSpeedGustMPH,Humidity,HourlyPrecipIn,Conditions,Clouds,dailyrainin,SoftwareType,DateUTC
2013-03-08 00:02:00,34.6,33.6,30.10,East,94,0.0,0.0,96,0.00,,,0.00,Wunderground v.1.15,2013-03-08 08:02:00,
2013-03-08 00:08:00,34.5,33.7,30.10,East,94,1.0,2.0,97,0.00,,,0.00,Wunderground v.1.15,2013-03-08 08:08:00,
2013-03-08 00:13:00,34.4,33.6,30.10,East,94,1.0,2.0,97,0.00,,,0.00,Wunderground v.1.15,2013-03-08 08:13:00,
2013-03-08 00:18:00,34.2,33.4,30.10,East,94,0.0,2.0,97,0.00,,,0.00,Wunderground v.1.15,2013-03-08 08:18:00,
2013-03-08 00:23:00,34.1,33.1,30.10,East,94,0.0,0.0,96,0.00,,,0.00,Wunderground v.1.15,2013-03-08 08:23:00,
2013-03-08 00:29:00,34.0,33.0,30.10,East,94,0.0,0.0,96,0.00,,,0.00,Wunderground v.1.15,2013-03-08 08:29:00,
2013-03-08 00:34:00,34.0,33.2,30.10,East,94,0.0,0.0,97,0.00,,,0.00,Wunderground v.1.15,2013-03-08 08:34:00,
2013-03-08 00:39:00,34.0,33.2,30.10,East,94,0.0,0.0,97,0.00,,,0.00,Wunderground v.1.15,2013-03-08 08:39:00,
2013-03-08 00:45:00,34.0,33.2,30.10,East,94,0.0,1.0,97,0.00,,,0.00,Wunderground v.1.15,2013-03-08 08:45:00,
2013-03-08 00:51:00,34.1,33.3,30.10,East,94,0.0,0.0,97,0.00,,,0.00,Wunderground v.1.15,2013-03-08 08:51:00,
2013-03-08 00:56:00,34.1,33.3,30.10,East,94,0.0,0.0,97,0.00,,,0.00,Wunderground v.1.15,2013-03-08 08:56:00,
2013-03-08 01:01:00,34.1,33.3,30.10,East,94,0.0,0.0,97,0.00,,,0.00,Wunderground v.1.15,2013-03-08 09:01:00,
2013-03-08 01:07:00,33.9,33.1,30.10,East,94,0.0,0.0,97,0.00,,,0.00,Wunderground v.1.15,2013-03-08 09:07:00,
2013-03-08 01:12:00,33.8,33.0,30.10,East,94,0.0,0.0,97,0.00,,,0.00,Wunderground v.1.15,2013-03-08 09:12:00,
2013-03-08 01:17:00,33.7,32.9,30.10,East,94,0.0,0.0,97,0.00,,,0.00,Wunderground v.1.15,2013-03-08 09:17:00,
2013-03-08 01:22:00,33.5,32.7,30.10,East,94,0.0,0.0,97,0.00,,,0.00,Wunderground v.1.15,2013-03-08 09:22:00,
2013-03-08 01:28:00,33.4,32.4,30.10,East,94,0.0,0.0,96,0.00,,,0.00,Wunderground v.1.15,2013-03-08 09:28:00,
2013-03-08 01:33:00,33.3,32.5,30.09,East,94,0.0,0.0,97,0.00,,,0.00,Wunderground v.1.15,2013-03-08 09:33:00,
2013-03-08 01:38:00,33.3,32.5,30.10,East,94,0.0,0.0,97,0.00,,,0.00,Wunderground v.1.15,2013-03-08 09:38:00,
2013-03-08 01:43:00,33.2,32.4,30.10,East,94,0.0,0.0,97,0.00,,,0.00,Wunderground v.1.15,2013-03-08 09:43:00,
2013-03-08 01:48:00,33.0,32.0,30.10,East,94,0.0,0.0,96,0.00,,,0.00,Wunderground v.1.15,2013-03-08 09:48:00,
2013-03-08 01:54:00,32.8,31.8,30.10,East,94,0.0,0.0,96,0.00,,,0.00,Wunderground v.1.15,2013-03-08 09:54:00,
2013-03-08 01:59:00,32.6,31.8,30.10,East,94,0.0,0.0,97,0.00,,,0.00,Wunderground v.1.15,2013-03-08 09:59:00,
2013-03-08 02:04:00,32.5,31.5,30.09,East,94,0.0,0.0,96,0.00,,,0.00,Wunderground v.1.15,2013-03-08 10:04:00,
2013-03-08 02:09:00,32.3,31.5,30.10,East,94,0.0,0.0,97,0.00,,,0.00,Wunderground v.1.15,2013-03-08 10:09:00,
2013-03-08 02:15:00,32.1,31.1,30.10,East,94,0.0,0.0,96,0.00,,,0.00,Wunderground v.1.15,2013-03-08 10:15:00,
2013-03-08 02:20:00,32.0,31.0,30.09,East,94,0.0,0.0,96,0.00,,,0.00,Wunderground v.1.15,2013-03-08 10:20:00,
2013-03-08 02:25:00,31.9,30.9,30.10,East,94,0.0,0.0,96,0.00,,,0.00,Wunderground v.1.15,2013-03-08 10:25:00,
2013-03-08 02:30:00,31.7,30.7,30.10,East,94,0.0,0.0,96,0.00,,,0.00,Wunderground v.1.15,2013-03-08 10:30:00,
2013-03-08 02:36:00,31.7,30.7,30.10,East,94,0.0,0.0,96,0.00,,,0.00,Wunderground v.1.15,2013-03-08 10:36:00,
2013-03-08 02:41:00,31.7,30.9,30.10,East,94,0.0,0.0,97,0.00,,,0.00,Wunderground v.1.15,2013-03-08 10:41:00,
2013-03-08 02:46:00,31.8,31.0,30.10,East,94,0.0,0.0,97,0.00,,,0.00,Wunderground v.1.15,2013-03-08 10:46:00,
2013-03-08 02:52:00,31.9,31.1,30.10,East,94,0.0,0.0,97,0.00,,,0.00,Wunderground v.1.15,2013-03-08 10:52:00,
2013-03-08 02:57:00,32.1,31.3,30.10,East,94,0.0,0.0,97,0.00,,,0.00,Wunderground v.1.15,2013-03-08 10:57:00,
2013-03-08 03:02:00,32.3,31.5,30.10,East,94,0.0,0.0,97,0.00,,,0.00,Wunderground v.1.15,2013-03-08 11:02:00,
2013-03-08 03:08:00,32.4,31.6,30.10,East,94,0.0,0.0,97,0.00,,,0.00,Wunderground v.1.15,2013-03-08 11:08:00,
2013-03-08 03:13:00,32.6,32.1,30.10,East,94,0.0,0.0,98,0.00,,,0.00,Wunderground v.1.15,2013-03-08 11:13:00,
2013-03-08 03:18:00,32.8,32.3,30.10,East,94,0.0,0.0,98,0.00,,,0.00,Wunderground v.1.15,2013-03-08 11:18:00,
2013-03-08 03:23:00,32.9,32.1,30.10,East,94,0.0,0.0,97,0.00,,,0.00,Wunderground v.1.15,2013-03-08 11:23:00,
2013-03-08 03:28:00,33.0,32.2,30.10,East,94,0.0,0.0,97,0.00,,,0.00,Wunderground v.1.15,2013-03-08 11:28:00,
2013-03-08 03:34:00,33.1,32.6,30.10,East,94,0.0,0.0,98,0.00,,,0.00,Wunderground v.1.15,2013-03-08 11:34:00,
2013-03-08 03:39:00,33.2,32.7,30.10,East,94,0.0,0.0,98,0.00,,,0.00,Wunderground v.1.15,2013-03-08 11:39:00,
2013-03-08 03:45:00,33.3,32.8,30.10,East,94,0.0,0.0,98,0.00,,,0.00,Wunderground v.1.15,2013-03-08 11:45:00,
2013-03-08 03:51:00,33.4,32.9,30.10,East,94,0.0,0.0,98,0.00,,,0.00,Wunderground v.1.15,2013-03-08 11:51:00,
2013-03-08 03:56:00,33.6,33.1,30.09,East,94,0.0,0.0,98,0.00,,,0.00,Wunderground v.1.15,2013-03-08 11:56:00,
2013-03-08 04:01:00,33.7,33.2,30.10,East,94,0.0,0.0,98,0.00,,,0.00,Wunderground v.1.15,2013-03-08 12:01:00,
2013-03-08 04:07:00,33.8,33.3,30.10,East,94,0.0,0.0,98,0.00,,,0.00,Wunderground v.1.15,2013-03-08 12:07:00,
2013-03-08 04:13:00,33.9,33.4,30.10,East,94,0.0,0.0,98,0.00,,,0.00,Wunderground v.1.15,2013-03-08 12:13:00,
2013-03-08 04:18:00,34.0,33.5,30.10,East,94,0.0,0.0,98,0.00,,,0.00,Wunderground v.1.15,2013-03-08 12:18:00,
2013-03-08 04:24:00,34.1,33.6,30.10,East,94,0.0,0.0,98,0.00,,,0.00,Wunderground v.1.15,2013-03-08 12:24:00,
2013-03-08 04:29:00,34.1,33.6,30.10,East,94,0.0,0.0,98,0.00,,,0.00,Wunderground v.1.15,2013-03-08 12:29:00,
2013-03-08 04:34:00,34.1,33.6,30.10,East,94,0.0,0.0,98,0.00,,,0.00,Wunderground v.1.15,2013-03-08 12:34:00,
2013-03-08 04:39:00,34.2,33.7,30.10,East,94,0.0,0.0,98,0.00,,,0.00,Wunderground v.1.15,2013-03-08 12:39:00,
2013-03-08 04:44:00,34.2,33.7,30.10,East,94,0.0,0.0,98,0.00,,,0.00,Wunderground v.1.15,2013-03-08 12:44:00,
2013-03-08 04:50:00,34.2,33.7,30.10,East,94,0.0,0.0,98,0.00,,,0.00,Wunderground v.1.15,2013-03-08 12:50:00,
2013-03-08 04:55:00,34.1,33.3,30.10,East,94,0.0,0.0,97,0.00,,,0.00,Wunderground v.1.15,2013-03-08 12:55:00,
2013-03-08 05:00:00,34.0,33.2,30.10,East,94,0.0,0.0,97,0.00,,,0.00,Wunderground v.1.15,2013-03-08 13:00:00,
2013-03-08 05:06:00,33.8,33.0,30.10,East,94,0.0,0.0,97,0.00,,,0.00,Wunderground v.1.15,2013-03-08 13:06:00,
2013-03-08 05:11:00,33.7,32.9,30.10,East,94,0.0,0.0,97,0.00,,,0.00,Wunderground v.1.15,2013-03-08 13:11:00,
2013-03-08 05:16:00,33.5,32.7,30.10,East,94,0.0,0.0,97,0.00,,,0.00,Wunderground v.1.15,2013-03-08 13:16:00,
2013-03-08 05:21:00,33.5,32.7,30.10,East,94,0.0,0.0,97,0.00,,,0.00,Wunderground v.1.15,2013-03-08 13:21:00,
2013-03-08 05:27:00,33.5,32.7,30.10,East,94,0.0,0.0,97,0.00,,,0.00,Wunderground v.1.15,2013-03-08 13:27:00,
2013-03-08 05:32:00,33.5,32.7,30.10,East,94,0.0,0.0,97,0.00,,,0.00,Wunderground v.1.15,2013-03-08 13:32:00,
2013-03-08 05:38:00,33.5,32.7,30.10,East,94,0.0,0.0,97,0.00,,,0.00,Wunderground v.1.15,2013-03-08 13:38:00,
2013-03-08 05:43:00,33.4,32.6,30.11,East,94,0.0,0.0,97,0.00,,,0.00,Wunderground v.1.15,2013-03-08 13:43:00,
2013-03-08 05:49:00,33.4,32.6,30.10,East,94,0.0,0.0,97,0.00,,,0.00,Wunderground v.1.15,2013-03-08 13:49:00,
2013-03-08 05:55:00,33.4,32.6,30.11,East,94,0.0,0.0,97,0.00,,,0.00,Wunderground v.1.15,2013-03-08 13:55:00,
2013-03-08 06:00:00,33.5,32.7,30.11,East,94,0.0,0.0,97,0.00,,,0.00,Wunderground v.1.15,2013-03-08 14:00:00,
2013-03-08 06:05:00,33.5,33.0,30.11,East,94,0.0,0.0,98,0.00,,,0.00,Wunderground v.1.15,2013-03-08 14:05:00,
2013-03-08 06:11:00,33.5,32.7,30.11,East,94,0.0,0.0,97,0.00,,,0.00,Wunderground v.1.15,2013-03-08 14:11:00,
2013-03-08 06:17:00,33.4,32.6,30.11,East,94,0.0,0.0,97,0.00,,,0.00,Wunderground v.1.15,2013-03-08 14:17:00,
2013-03-08 06:22:00,33.4,32.6,30.11,East,94,0.0,0.0,97,0.00,,,0.00,Wunderground v.1.15,2013-03-08 14:22:00,
2013-03-08 06:28:00,33.4,32.6,30.11,East,94,0.0,0.0,97,0.00,,,0.00,Wunderground v.1.15,2013-03-08 14:28:00,
2013-03-08 06:33:00,33.4,32.6,30.11,East,94,0.0,0.0,97,0.00,,,0.00,Wunderground v.1.15,2013-03-08 14:33:00,
2013-03-08 06:38:00,33.4,32.6,30.11,East,94,0.0,0.0,97,0.00,,,0.00,Wunderground v.1.15,2013-03-08 14:38:00,
2013-03-08 06:43:00,33.3,32.5,30.11,East,94,0.0,0.0,97,0.00,,,0.00,Wunderground v.1.15,2013-03-08 14:43:00,
2013-03-08 06:49:00,33.2,32.4,30.11,East,94,0.0,1.0,97,0.00,,,0.00,Wunderground v.1.15,2013-03-08 14:49:00,
2013-03-08 06:54:00,33.2,32.4,30.11,East,94,0.0,0.0,97,0.00,,,0.00,Wunderground v.1.15,2013-03-08 14:54:00,
2013-03-08 06:59:00,33.0,32.2,30.11,East,94,0.0,0.0,97,0.00,,,0.00,Wunderground v.1.15,2013-03-08 14:59:00,
2013-03-08 07:04:00,33.0,32.2,30.11,East,94,0.0,1.0,97,0.00,,,0.00,Wunderground v.1.15,2013-03-08 15:04:00,
2013-03-08 07:09:00,33.0,32.2,30.11,East,94,0.0,1.0,97,0.00,,,0.00,Wunderground v.1.15,2013-03-08 15:09:00,
2013-03-08 07:15:00,33.0,32.2,30.11,East,94,1.0,2.0,97,0.00,,,0.00,Wunderground v.1.15,2013-03-08 15:15:00,
2013-03-08 07:20:00,33.0,32.2,30.11,East,94,1.0,2.0,97,0.00,,,0.00,Wunderground v.1.15,2013-03-08 15:20:00,
2013-03-08 07:25:00,33.0,32.5,30.11,East,94,1.0,1.0,98,0.00,,,0.00,Wunderground v.1.15,2013-03-08 15:25:00,
2013-03-08 07:31:00,33.1,32.6,30.11,East,94,0.0,0.0,98,0.00,,,0.00,Wunderground v.1.15,2013-03-08 15:31:00,
2013-03-08 07:36:00,33.2,32.7,30.11,East,94,0.0,0.0,98,0.00,,,0.00,Wunderground v.1.15,2013-03-08 15:36:00,
2013-03-08 07:41:00,33.2,32.7,30.12,East,94,0.0,0.0,98,0.00,,,0.00,Wunderground v.1.15,2013-03-08 15:41:00,
2013-03-08 07:46:00,33.3,32.8,30.12,East,94,0.0,0.0,98,0.00,,,0.00,Wunderground v.1.15,2013-03-08 15:46:00,
2013-03-08 07:52:00,33.5,33.0,30.12,East,94,0.0,0.0,98,0.00,,,0.00,Wunderground v.1.15,2013-03-08 15:52:00,
2013-03-08 07:58:00,33.8,33.3,30.12,East,94,0.0,0.0,98,0.00,,,0.00,Wunderground v.1.15,2013-03-08 15:58:00,
2013-03-08 08:03:00,34.0,33.5,30.13,East,94,0.0,0.0,98,0.00,,,0.00,Wunderground v.1.15,2013-03-08 16:03:00,
2013-03-08 08:09:00,34.1,33.6,30.13,East,94,0.0,0.0,98,0.00,,,0.00,Wunderground v.1.15,2013-03-08 16:09:00,
2013-03-08 08:14:00,34.2,33.7,30.13,East,94,0.0,0.0,98,0.00,,,0.00,Wunderground v.1.15,2013-03-08 16:14:00,
2013-03-08 08:19:00,34.4,33.9,30.13,East,94,0.0,0.0,98,0.00,,,0.00,Wunderground v.1.15,2013-03-08 16:19:00,
2013-03-08 08:24:00,34.6,34.1,30.13,East,94,0.0,1.0,98,0.00,,,0.00,Wunderground v.1.15,2013-03-08 16:24:00,
2013-03-08 08:30:00,34.8,34.3,30.13,East,94,1.0,2.0,98,0.00,,,0.00,Wunderground v.1.15,2013-03-08 16:30:00,
2013-03-08 08:35:00,35.0,34.5,30.13,East,94,1.0,1.0,98,0.00,,,0.00,Wunderground v.1.15,2013-03-08 16:35:00,
2013-03-08 08:40:00,35.3,34.8,30.14,East,94,0.0,1.0,98,0.00,,,0.00,Wunderground v.1.15,2013-03-08 16:40:00,
2013-03-08 08:45:00,35.4,34.9,30.14,East,94,0.0,0.0,98,0.00,,,0.00,Wunderground v.1.15,2013-03-08 16:45:00,
2013-03-08 08:50:00,35.6,35.1,30.14,East,94,0.0,0.0,98,0.00,,,0.00,Wunderground v.1.15,2013-03-08 16:50:00,
2013-03-08 08:56:00,35.9,35.4,30.14,East,94,0.0,0.0,98,0.00,,,0.00,Wunderground v.1.15,2013-03-08 16:56:00,
2013-03-08 09:01:00,36.2,35.7,30.14,East,94,0.0,0.0,98,0.00,,,0.00,Wunderground v.1.15,2013-03-08 17:01:00,
2013-03-08 09:07:00,36.5,36.0,30.14,East,94,0.0,0.0,98,0.00,,,0.00,Wunderground v.1.15,2013-03-08 17:07:00,
2013-03-08 09:12:00,36.7,36.2,30.14,East,91,0.0,0.0,98,0.00,,,0.00,Wunderground v.1.15,2013-03-08 17:12:00,
2013-03-08 09:17:00,37.0,36.5,30.14,East,91,0.0,0.0,98,0.00,,,0.00,Wunderground v.1.15,2013-03-08 17:17:00,
2013-03-08 09:23:00,36.9,36.4,30.14,WSW,239,0.0,3.0,98,0.00,,,0.00,Wunderground v.1.15,2013-03-08 17:23:00,
2013-03-08 09:28:00,37.1,36.6,30.14,WSW,254,1.0,3.0,98,0.00,,,0.00,Wunderground v.1.15,2013-03-08 17:28:00,
2013-03-08 09:34:00,37.5,37.0,30.14,SW,234,2.0,3.0,98,0.00,,,0.00,Wunderground v.1.15,2013-03-08 17:34:00,
2013-03-08 09:39:00,37.7,37.2,30.14,SW,234,1.0,3.0,98,0.00,,,0.00,Wunderground v.1.15,2013-03-08 17:39:00,
2013-03-08 09:44:00,37.7,37.2,30.15,West,268,1.0,5.0,98,0.00,,,0.00,Wunderground v.1.15,2013-03-08 17:44:00,
2013-03-08 09:50:00,37.9,37.4,30.15,West,268,2.0,5.0,98,0.00,,,0.00,Wunderground v.1.15,2013-03-08 17:50:00,
2013-03-08 09:55:00,38.1,37.6,30.15,West,268,1.0,2.0,98,0.00,,,0.00,Wunderground v.1.15,2013-03-08 17:55:00,
2013-03-08 10:01:00,38.3,37.8,30.15,West,268,1.0,1.0,98,0.00,,,0.00,Wunderground v.1.15,2013-03-08 18:01:00,
2013-03-08 10:07:00,38.4,37.9,30.15,West,275,1.0,3.0,98,0.00,,,0.00,Wunderground v.1.15,2013-03-08 18:07:00,
2013-03-08 10:13:00,38.6,38.1,30.15,WNW,283,2.0,2.0,98,0.00,,,0.00,Wunderground v.1.15,2013-03-08 18:13:00,
2013-03-08 10:18:00,38.8,38.3,30.15,WNW,283,2.0,3.0,98,0.00,,,0.00,Wunderground v.1.15,2013-03-08 18:18:00,
2013-03-08 10:23:00,38.9,38.4,30.15,WNW,283,1.0,1.0,98,0.00,,,0.00,Wunderground v.1.15,2013-03-08 18:23:00,
2013-03-08 10:28:00,39.2,38.7,30.15,WNW,283,0.0,1.0,98,0.00,,,0.00,Wunderground v.1.15,2013-03-08 18:28:00,
2013-03-08 10:34:00,39.4,38.9,30.14,WNW,283,0.0,0.0,98,0.00,,,0.00,Wunderground v.1.15,2013-03-08 18:34:00,
2013-03-08 10:39:00,39.7,39.2,30.14,WNW,283,0.0,0.0,98,0.00,,,0.00,Wunderground v.1.15,2013-03-08 18:39:00,
2013-03-08 10:44:00,40.2,39.7,30.15,WNW,282,1.0,4.0,98,0.00,,,0.00,Wunderground v.1.15,2013-03-08 18:44:00,
2013-03-08 10:49:00,40.6,40.1,30.14,WNW,286,2.0,4.0,98,0.00,,,0.00,Wunderground v.1.15,2013-03-08 18:49:00,
2013-03-08 10:54:00,40.5,40.0,30.14,SW,232,1.0,3.0,98,0.00,,,0.00,Wunderground v.1.15,2013-03-08 18:54:00,
2013-03-08 11:00:00,40.4,39.9,30.14,SW,232,1.0,3.0,98,0.00,,,0.00,Wunderground v.1.15,2013-03-08 19:00:00,
2013-03-08 11:05:00,40.9,40.4,30.14,SW,234,0.0,2.0,98,0.00,,,0.00,Wunderground v.1.15,2013-03-08 19:05:00,
2013-03-08 11:10:00,41.8,41.3,30.14,West,279,1.0,3.0,98,0.00,,,0.00,Wunderground v.1.15,2013-03-08 19:10:00,
2013-03-08 11:15:00,42.4,41.6,30.14,WSW,256,2.0,3.0,97,0.00,,,0.00,Wunderground v.1.15,2013-03-08 19:15:00,
2013-03-08 11:21:00,43.2,41.9,30.14,WSW,244,2.0,2.0,95,0.00,,,0.00,Wunderground v.1.15,2013-03-08 19:21:00,
2013-03-08 11:26:00,43.4,41.2,30.14,WSW,240,2.0,2.0,92,0.00,,,0.00,Wunderground v.1.15,2013-03-08 19:26:00,
2013-03-08 11:31:00,43.9,41.4,30.14,WSW,240,1.0,1.0,91,0.00,,,0.00,Wunderground v.1.15,2013-03-08 19:31:00,
2013-03-08 11:37:00,44.5,41.5,30.14,SW,225,1.0,3.0,89,0.00,,,0.00,Wunderground v.1.15,2013-03-08 19:37:00,
2013-03-08 11:43:00,45.4,42.3,30.14,WSW,252,1.0,2.0,89,0.00,,,0.00,Wunderground v.1.15,2013-03-08 19:43:00,
2013-03-08 11:49:00,46.5,43.4,30.14,SW,219,1.0,2.0,89,0.00,,,0.00,Wunderground v.1.15,2013-03-08 19:49:00,
2013-03-08 11:54:00,47.8,43.2,30.14,NW,318,1.0,2.0,84,0.00,,,0.00,Wunderground v.1.15,2013-03-08 19:54:00,
2013-03-08 11:59:00,48.6,44.3,30.14,West,266,0.0,2.0,85,0.00,,,0.00,Wunderground v.1.15,2013-03-08 19:59:00,
2013-03-08 12:05:00,50.0,45.7,30.13,SW,221,1.0,4.0,85,0.00,,,0.00,Wunderground v.1.15,2013-03-08 20:05:00,
2013-03-08 12:10:00,50.2,44.3,30.13,SW,221,2.0,4.0,80,0.00,,,0.00,Wunderground v.1.15,2013-03-08 20:10:00,
2013-03-08 12:15:00,50.9,45.3,30.13,SW,221,1.0,3.0,81,0.00,,,0.00,Wunderground v.1.15,2013-03-08 20:15:00,
2013-03-08 12:20:00,50.5,43.2,30.13,SW,221,1.0,3.0,76,0.00,,,0.00,Wunderground v.1.15,2013-03-08 20:20:00,
2013-03-08 12:26:00,50.2,42.9,30.13,SSW,209,1.0,3.0,76,0.00,,,0.00,Wunderground v.1.15,2013-03-08 20:26:00,
2013-03-08 12:31:00,50.8,43.8,30.13,West,270,1.0,5.0,77,0.00,,,0.00,Wunderground v.1.15,2013-03-08 20:31:00,
2013-03-08 12:36:00,52.0,44.7,30.13,WSW,246,2.0,5.0,76,0.00,,,0.00,Wunderground v.1.15,2013-03-08 20:36:00,
2013-03-08 12:41:00,53.4,45.0,30.12,SW,220,2.0,3.0,73,0.00,,,0.00,Wunderground v.1.15,2013-03-08 20:41:00,
2013-03-08 12:47:00,53.6,45.2,30.12,SW,236,2.0,5.0,73,0.00,,,0.00,Wunderground v.1.15,2013-03-08 20:47:00,
2013-03-08 12:52:00,54.4,44.4,30.12,NW,320,2.0,5.0,69,0.00,,,0.00,Wunderground v.1.15,2013-03-08 20:52:00,
2013-03-08 12:58:00,55.3,44.5,30.12,WNW,287,3.0,5.0,67,0.00,,,0.00,Wunderground v.1.15,2013-03-08 20:58:00,
2013-03-08 13:04:00,55.7,44.5,30.12,WSW,241,4.0,6.0,66,0.00,,,0.00,Wunderground v.1.15,2013-03-08 21:04:00,
2013-03-08 13:09:00,55.7,44.5,30.12,NW,309,4.0,6.0,66,0.00,,,0.00,Wunderground v.1.15,2013-03-08 21:09:00,
2013-03-08 13:14:00,56.0,44.0,30.12,WNW,299,4.0,5.0,64,0.00,,,0.00,Wunderground v.1.15,2013-03-08 21:14:00,
2013-03-08 13:20:00,56.0,44.8,30.12,WSW,242,3.0,6.0,66,0.00,,,0.00,Wunderground v.1.15,2013-03-08 21:20:00,
2013-03-08 13:26:00,56.5,44.5,30.12,WSW,237,4.0,5.0,64,0.00,,,0.00,Wunderground v.1.15,2013-03-08 21:26:00,
2013-03-08 13:31:00,55.7,44.1,30.12,SW,230,4.0,4.0,65,0.00,,,0.00,Wunderground v.1.15,2013-03-08 21:31:00,
2013-03-08 13:36:00,55.9,45.9,30.12,SW,220,4.0,6.0,69,0.00,,,0.00,Wunderground v.1.15,2013-03-08 21:36:00,
2013-03-08 13:42:00,55.1,43.9,30.12,WSW,250,5.0,7.0,66,0.00,,,0.00,Wunderground v.1.15,2013-03-08 21:42:00,
2013-03-08 13:47:00,54.6,43.9,30.12,SW,236,4.0,7.0,67,0.00,,,0.00,Wunderground v.1.15,2013-03-08 21:47:00,
2013-03-08 13:53:00,55.3,44.5,30.12,WNW,300,2.0,5.0,67,0.00,,,0.00,Wunderground v.1.15,2013-03-08 21:53:00,
2013-03-08 13:58:00,56.0,44.0,30.11,WSW,242,2.0,5.0,64,0.00,,,0.00,Wunderground v.1.15,2013-03-08 21:58:00,
2013-03-08 14:03:00,56.2,42.9,30.11,WSW,242,1.0,2.0,61,0.00,,,0.00,Wunderground v.1.15,2013-03-08 22:03:00,
2013-03-08 14:08:00,55.9,43.1,30.12,NW,325,1.0,4.0,62,0.00,,,0.00,Wunderground v.1.15,2013-03-08 22:08:00,
2013-03-08 14:14:00,55.9,43.5,30.11,NNW,346,3.0,4.0,63,0.00,,,0.00,Wunderground v.1.15,2013-03-08 22:14:00,
2013-03-08 14:19:00,55.9,43.5,30.11,North,355,3.0,5.0,63,0.00,,,0.00,Wunderground v.1.15,2013-03-08 22:19:00,
2013-03-08 14:24:00,55.8,42.1,30.12,NNW,330,3.0,3.0,60,0.00,,,0.00,Wunderground v.1.15,2013-03-08 22:24:00,
2013-03-08 14:29:00,55.7,42.9,30.11,WNW,292,2.0,7.0,62,0.00,,,0.00,Wunderground v.1.15,2013-03-08 22:29:00,
2013-03-08 14:35:00,54.9,42.1,30.11,North,355,4.0,7.0,62,0.00,,,0.00,Wunderground v.1.15,2013-03-08 22:35:00,
2013-03-08 14:41:00,53.7,41.4,30.12,NW,312,4.0,4.0,63,0.00,,,0.00,Wunderground v.1.15,2013-03-08 22:41:00,
2013-03-08 14:46:00,52.8,41.4,30.12,NW,314,3.0,5.0,65,0.00,,,0.00,Wunderground v.1.15,2013-03-08 22:46:00,
2013-03-08 14:52:00,52.4,41.4,30.12,NNE,25,1.0,2.0,66,0.00,,,0.00,Wunderground v.1.15,2013-03-08 22:52:00,
2013-03-08 14:57:00,52.1,41.1,30.12,North,355,1.0,5.0,66,0.00,,,0.00,Wunderground v.1.15,2013-03-08 22:57:00,
2013-03-08 15:02:00,51.7,39.9,30.12,North,5,3.0,3.0,64,0.00,,,0.00,Wunderground v.1.15,2013-03-08 23:02:00,
2013-03-08 15:07:00,51.5,40.5,30.12,NW,317,4.0,6.0,66,0.00,,,0.00,Wunderground v.1.15,2013-03-08 23:07:00,
2013-03-08 15:13:00,51.5,40.5,30.12,NNE,15,4.0,4.0,66,0.00,,,0.00,Wunderground v.1.15,2013-03-08 23:13:00,
2013-03-08 15:18:00,51.4,40.4,30.12,NW,316,3.0,4.0,66,0.00,,,0.00,Wunderground v.1.15,2013-03-08 23:18:00,
2013-03-08 15:23:00,51.4,40.8,30.12,NE,47,3.0,4.0,67,0.00,,,0.00,Wunderground v.1.15,2013-03-08 23:23:00,
2013-03-08 15:29:00,51.4,40.4,30.12,NNE,15,3.0,6.0,66,0.00,,,0.00,Wunderground v.1.15,2013-03-08 23:29:00,
2013-03-08 15:34:00,51.4,41.2,30.12,NNW,345,3.0,4.0,68,0.00,,,0.00,Wunderground v.1.15,2013-03-08 23:34:00,
2013-03-08 15:39:00,51.5,41.3,30.12,WNW,301,3.0,4.0,68,0.00,,,0.00,Wunderground v.1.15,2013-03-08 23:39:00,
2013-03-08 15:45:00,52.0,41.4,30.12,NW,313,4.0,4.0,67,0.00,,,0.00,Wunderground v.1.15,2013-03-08 23:45:00,
2013-03-08 15:50:00,52.6,41.6,30.12,NNW,344,4.0,5.0,66,0.00,,,0.00,Wunderground v.1.15,2013-03-08 23:50:00,
2013-03-08 15:55:00,53.0,41.5,30.12,WNW,287,4.0,6.0,65,0.00,,,0.00,Wunderground v.1.15,2013-03-08 23:55:00,
2013-03-08 16:01:00,53.5,41.2,30.13,NNE,17,3.0,5.0,63,0.00,,,0.00,Wunderground v.1.15,2013-03-09 00:01:00,
2013-03-08 16:07:00,53.3,41.0,30.13,NNW,337,3.0,5.0,63,0.00,,,0.00,Wunderground v.1.15,2013-03-09 00:07:00,
2013-03-08 16:12:00,53.0,41.1,30.13,NW,320,4.0,6.0,64,0.00,,,0.00,Wunderground v.1.15,2013-03-09 00:12:00,
2013-03-08 16:18:00,52.6,40.4,30.13,WNW,294,5.0,8.0,63,0.00,,,0.00,Wunderground v.1.15,2013-03-09 00:18:00,
2013-03-08 16:23:00,52.3,40.9,30.13,North,11,4.0,4.0,65,0.00,,,0.00,Wunderground v.1.15,2013-03-09 00:23:00,
2013-03-08 16:28:00,51.9,40.5,30.13,WNW,292,4.0,5.0,65,0.00,,,0.00,Wunderground v.1.15,2013-03-09 00:28:00,
2013-03-08 16:34:00,51.3,39.9,30.13,NNW,348,4.0,7.0,65,0.00,,,0.00,Wunderground v.1.15,2013-03-09 00:34:00,
2013-03-08 16:40:00,50.8,39.8,30.13,NNW,344,3.0,7.0,66,0.00,,,0.00,Wunderground v.1.15,2013-03-09 00:40:00,
2013-03-08 16:45:00,50.5,39.9,30.13,NW,316,3.0,7.0,67,0.00,,,0.00,Wunderground v.1.15,2013-03-09 00:45:00,
2013-03-08 16:50:00,50.2,40.0,30.13,NNW,342,4.0,7.0,68,0.00,,,0.00,Wunderground v.1.15,2013-03-09 00:50:00,
2013-03-08 16:55:00,49.9,39.4,30.13,NW,326,4.0,7.0,67,0.00,,,0.00,Wunderground v.1.15,2013-03-09 00:55:00,
2013-03-08 17:00:00,49.7,39.6,30.13,NNW,336,3.0,7.0,68,0.00,,,0.00,Wunderground v.1.15,2013-03-09 01:00:00,
2013-03-08 17:06:00,49.5,40.5,30.14,NW,314,2.0,4.0,71,0.00,,,0.00,Wunderground v.1.15,2013-03-09 01:06:00,
2013-03-08 17:11:00,49.2,39.8,30.14,NNE,19,2.0,3.0,70,0.00,,,0.00,Wunderground v.1.15,2013-03-09 01:11:00,
2013-03-08 17:16:00,48.9,39.5,30.14,North,5,2.0,5.0,70,0.00,,,0.00,Wunderground v.1.15,2013-03-09 01:16:00,
2013-03-08 17:22:00,48.7,39.7,30.14,NW,320,3.0,3.0,71,0.00,,,0.00,Wunderground v.1.15,2013-03-09 01:22:00,
2013-03-08 17:27:00,48.5,39.9,30.14,NW,319,1.0,3.0,72,0.00,,,0.00,Wunderground v.1.15,2013-03-09 01:27:00,
2013-03-08 17:32:00,48.3,40.0,30.15,NW,319,0.0,0.0,73,0.00,,,0.00,Wunderground v.1.15,2013-03-09 01:32:00,
2013-03-08 17:38:00,47.9,39.7,30.15,North,349,0.0,2.0,73,0.00,,,0.00,Wunderground v.1.15,2013-03-09 01:38:00,
2013-03-08 17:43:00,47.6,40.1,30.15,North,9,1.0,1.0,75,0.00,,,0.00,Wunderground v.1.15,2013-03-09 01:43:00,
2013-03-08 17:48:00,47.3,39.1,30.15,NNE,24,1.0,2.0,73,0.00,,,0.00,Wunderground v.1.15,2013-03-09 01:48:00,
2013-03-08 17:53:00,47.0,39.1,30.15,NE,36,1.0,3.0,74,0.00,,,0.00,Wunderground v.1.15,2013-03-09 01:53:00,
2013-03-08 17:58:00,46.7,38.9,30.15,NNE,33,1.0,3.0,74,0.00,,,0.00,Wunderground v.1.15,2013-03-09 01:58:00,
2013-03-08 18:04:00,46.3,38.8,30.16,NNE,33,0.0,1.0,75,0.00,,,0.00,Wunderground v.1.15,2013-03-09 02:04:00,
2013-03-08 18:09:00,46.0,38.9,30.16,NNE,33,0.0,1.0,76,0.00,,,0.00,Wunderground v.1.15,2013-03-09 02:09:00,
2013-03-08 18:15:00,45.6,38.8,30.16,NNE,12,0.0,2.0,77,0.00,,,0.00,Wunderground v.1.15,2013-03-09 02:15:00,
2013-03-08 18:21:00,45.1,39.0,30.16,NNE,12,0.0,0.0,79,0.00,,,0.00,Wunderground v.1.15,2013-03-09 02:21:00,
2013-03-08 18:26:00,44.8,38.4,30.17,NNE,26,0.0,2.0,78,0.00,,,0.00,Wunderground v.1.15,2013-03-09 02:26:00,
2013-03-08 18:32:00,44.5,38.4,30.17,NNE,26,0.0,0.0,79,0.00,,,0.00,Wunderground v.1.15,2013-03-09 02:32:00,
2013-03-08 18:38:00,44.3,38.5,30.17,NNE,26,0.0,0.0,80,0.00,,,0.00,Wunderground v.1.15,2013-03-09 02:38:00,
2013-03-08 18:44:00,44.0,38.2,30.17,NNE,26,0.0,0.0,80,0.00,,,0.00,Wunderground v.1.15,2013-03-09 02:44:00,
2013-03-08 18:49:00,43.7,38.3,30.18,NNE,26,0.0,0.0,81,0.00,,,0.00,Wunderground v.1.15,2013-03-09 02:49:00,
2013-03-08 18:54:00,43.4,38.3,30.18,NNE,26,0.0,0.0,82,0.00,,,0.00,Wunderground v.1.15,2013-03-09 02:54:00,
2013-03-08 19:00:00,43.1,38.0,30.18,NNE,26,0.0,0.0,82,0.00,,,0.00,Wunderground v.1.15,2013-03-09 03:00:00,
2013-03-08 19:06:00,42.9,38.1,30.18,NNE,26,0.0,0.0,83,0.00,,,0.00,Wunderground v.1.15,2013-03-09 03:06:00,
2013-03-08 19:11:00,42.7,37.9,30.19,NNE,26,0.0,0.0,83,0.00,,,0.00,Wunderground v.1.15,2013-03-09 03:11:00,
2013-03-08 19:16:00,42.4,37.9,30.19,NNE,26,0.0,0.0,84,0.00,,,0.00,Wunderground v.1.15,2013-03-09 03:16:00,
2013-03-08 19:22:00,42.0,37.8,30.19,NNE,26,0.0,0.0,85,0.00,,,0.00,Wunderground v.1.15,2013-03-09 03:22:00,
2013-03-08 19:27:00,41.6,37.7,30.19,NNE,26,0.0,0.0,86,0.00,,,0.00,Wunderground v.1.15,2013-03-09 03:27:00,
2013-03-08 19:33:00,41.3,37.4,30.19,NNE,26,0.0,0.0,86,0.00,,,0.00,Wunderground v.1.15,2013-03-09 03:33:00,
2013-03-08 19:38:00,41.0,37.4,30.20,NNE,26,0.0,0.0,87,0.00,,,0.00,Wunderground v.1.15,2013-03-09 03:38:00,
2013-03-08 19:43:00,40.7,37.1,30.20,NNE,26,0.0,0.0,87,0.00,,,0.00,Wunderground v.1.15,2013-03-09 03:43:00,
2013-03-08 19:48:00,40.4,37.1,30.20,NNE,26,0.0,0.0,88,0.00,,,0.00,Wunderground v.1.15,2013-03-09 03:48:00,
2013-03-08 19:54:00,40.1,36.8,30.20,NNE,26,0.0,1.0,88,0.00,,,0.00,Wunderground v.1.15,2013-03-09 03:54:00,
2013-03-08 19:59:00,39.8,36.8,30.20,NNE,26,0.0,1.0,89,0.00,,,0.00,Wunderground v.1.15,2013-03-09 03:59:00,
2013-03-08 20:04:00,39.5,36.5,30.21,NNE,26,0.0,2.0,89,0.00,,,0.00,Wunderground v.1.15,2013-03-09 04:04:00,
2013-03-08 20:09:00,39.2,36.2,30.21,NNE,26,0.0,2.0,89,0.00,,,0.00,Wunderground v.1.15,2013-03-09 04:09:00,
2013-03-08 20:15:00,38.9,36.2,30.21,NNE,26,0.0,0.0,90,0.00,,,0.00,Wunderground v.1.15,2013-03-09 04:15:00,
2013-03-08 20:20:00,38.6,36.2,30.21,NNE,26,0.0,0.0,91,0.00,,,0.00,Wunderground v.1.15,2013-03-09 04:20:00,
2013-03-08 20:25:00,38.4,36.0,30.22,NNE,26,0.0,0.0,91,0.00,,,0.00,Wunderground v.1.15,2013-03-09 04:25:00,
2013-03-08 20:30:00,38.2,36.1,30.22,NNE,26,0.0,0.0,92,0.00,,,0.00,Wunderground v.1.15,2013-03-09 04:30:00,
2013-03-08 20:36:00,37.9,35.8,30.22,NNE,26,0.0,0.0,92,0.00,,,0.00,Wunderground v.1.15,2013-03-09 04:36:00,
2013-03-08 20:41:00,37.7,35.6,30.22,NNE,26,0.0,0.0,92,0.00,,,0.00,Wunderground v.1.15,2013-03-09 04:41:00,
2013-03-08 20:46:00,37.5,35.4,30.22,NNE,26,0.0,0.0,92,0.00,,,0.00,Wunderground v.1.15,2013-03-09 04:46:00,
2013-03-08 20:51:00,37.3,35.2,30.22,NNE,26,0.0,0.0,92,0.00,,,0.00,Wunderground v.1.15,2013-03-09 04:51:00,
2013-03-08 20:57:00,37.1,35.3,30.22,NNE,26,0.0,0.0,93,0.00,,,0.00,Wunderground v.1.15,2013-03-09 04:57:00,
2013-03-08 21:00:00,37.0,35.2,30.22,NNE,26,0.0,0.0,93,0.00,,,0.00,Wunderground v.1.15,2013-03-09 05:00:00,
2013-03-08 21:01:00,37.0,35.2,30.22,NNE,26,0.0,0.0,93,0.00,,,0.00,Wunderground v.1.15,2013-03-09 05:01:00,
2013-03-08 21:02:00,37.0,35.2,30.22,NNE,26,0.0,0.0,93,0.00,,,0.00,Wunderground v.1.15,2013-03-09 05:02:00,
2013-03-08 21:08:00,36.9,35.1,30.22,NNE,26,0.0,0.0,93,0.00,,,0.00,Wunderground v.1.15,2013-03-09 05:08:00,
2013-03-08 21:14:00,36.7,34.9,30.23,NNE,26,0.0,0.0,93,0.00,,,0.00,Wunderground v.1.15,2013-03-09 05:14:00,
2013-03-08 21:19:00,36.5,34.7,30.23,NNE,26,0.0,0.0,93,0.00,,,0.00,Wunderground v.1.15,2013-03-09 05:19:00,
2013-03-08 21:24:00,36.4,34.8,30.23,NNE,26,0.0,0.0,94,0.00,,,0.00,Wunderground v.1.15,2013-03-09 05:24:00,
2013-03-08 21:30:00,36.2,34.6,30.23,NNE,26,0.0,0.0,94,0.00,,,0.00,Wunderground v.1.15,2013-03-09 05:30:00,
2013-03-08 21:35:00,36.1,34.5,30.23,NNE,26,0.0,0.0,94,0.00,,,0.00,Wunderground v.1.15,2013-03-09 05:35:00,
2013-03-08 21:40:00,36.0,34.4,30.23,NNE,26,0.0,0.0,94,0.00,,,0.00,Wunderground v.1.15,2013-03-09 05:40:00,
2013-03-08 21:45:00,35.8,34.2,30.23,NNE,26,0.0,0.0,94,0.00,,,0.00,Wunderground v.1.15,2013-03-09 05:45:00,
2013-03-08 21:51:00,35.6,34.0,30.23,NNE,26,0.0,0.0,94,0.00,,,0.00,Wunderground v.1.15,2013-03-09 05:51:00,
2013-03-08 21:56:00,35.5,33.9,30.23,NNE,26,0.0,0.0,94,0.00,,,0.00,Wunderground v.1.15,2013-03-09 05:56:00,
2013-03-08 22:01:00,35.4,34.1,30.23,NNE,26,0.0,0.0,95,0.00,,,0.00,Wunderground v.1.15,2013-03-09 06:01:00,
2013-03-08 22:07:00,35.4,34.1,30.23,NNE,26,0.0,0.0,95,0.00,,,0.00,Wunderground v.1.15,2013-03-09 06:07:00,
2013-03-08 22:12:00,35.2,33.9,30.23,NNE,26,0.0,0.0,95,0.00,,,0.00,Wunderground v.1.15,2013-03-09 06:12:00,
2013-03-08 22:17:00,35.1,33.5,30.23,NNE,26,0.0,0.0,94,0.00,,,0.00,Wunderground v.1.15,2013-03-09 06:17:00,
2013-03-08 22:22:00,34.9,33.6,30.23,NNE,26,0.0,0.0,95,0.00,,,0.00,Wunderground v.1.15,2013-03-09 06:22:00,
2013-03-08 22:27:00,34.7,33.2,30.23,NNE,26,0.0,0.0,94,0.00,,,0.00,Wunderground v.1.15,2013-03-09 06:27:00,
2013-03-08 22:33:00,34.6,33.3,30.23,NNE,26,0.0,0.0,95,0.00,,,0.00,Wunderground v.1.15,2013-03-09 06:33:00,
2013-03-08 22:38:00,34.5,33.2,30.24,NNE,26,0.0,0.0,95,0.00,,,0.00,Wunderground v.1.15,2013-03-09 06:38:00,
2013-03-08 22:43:00,34.3,33.0,30.24,NNE,26,0.0,0.0,95,0.00,,,0.00,Wunderground v.1.15,2013-03-09 06:43:00,
2013-03-08 22:49:00,34.2,32.9,30.24,NNE,26,0.0,0.0,95,0.00,,,0.00,Wunderground v.1.15,2013-03-09 06:49:00,
2013-03-08 22:55:00,34.1,32.8,30.24,NNE,26,0.0,0.0,95,0.00,,,0.00,Wunderground v.1.15,2013-03-09 06:55:00,
2013-03-08 23:00:00,34.0,32.7,30.24,NNE,26,0.0,0.0,95,0.00,,,0.00,Wunderground v.1.15,2013-03-09 07:00:00,
2013-03-08 23:05:00,33.9,32.6,30.24,NNE,26,0.0,0.0,95,0.00,,,0.00,Wunderground v.1.15,2013-03-09 07:05:00,
2013-03-08 23:10:00,33.7,32.4,30.24,NNE,26,0.0,0.0,95,0.00,,,0.00,Wunderground v.1.15,2013-03-09 07:10:00,
2013-03-08 23:16:00,33.6,32.3,30.25,NNE,26,0.0,0.0,95,0.00,,,0.00,Wunderground v.1.15,2013-03-09 07:16:00,
2013-03-08 23:21:00,33.4,32.1,30.25,NNE,26,0.0,1.0,95,0.00,,,0.00,Wunderground v.1.15,2013-03-09 07:21:00,
2013-03-08 23:26:00,33.3,32.0,30.25,NNE,26,1.0,2.0,95,0.00,,,0.00,Wunderground v.1.15,2013-03-09 07:26:00,
2013-03-08 23:31:00,33.2,31.9,30.25,NNE,26,1.0,1.0,95,0.00,,,0.00,Wunderground v.1.15,2013-03-09 07:31:00,
2013-03-08 23:37:00,32.9,31.6,30.25,NNE,26,0.0,1.0,95,0.00,,,0.00,Wunderground v.1.15,2013-03-09 07:37:00,
2013-03-08 23:42:00,32.8,31.5,30.25,NNE,26,0.0,2.0,95,0.00,,,0.00,Wunderground v.1.15,2013-03-09 07:42:00,
2013-03-08 23:48:00,32.7,31.4,30.25,NNE,26,1.0,2.0,95,0.00,,,0.00,Wunderground v.1.15,2013-03-09 07:48:00,
2013-03-08 23:53:00,32.6,31.3,30.25,NNE,26,1.0,1.0,95,0.00,,,0.00,Wunderground v.1.15,2013-03-09 07:53:00,
2013-03-08 23:58:00,32.5,31.2,30.26,NNE,26,0.0,1.0,95,0.00,,,0.00,Wunderground v.1.15,2013-03-09 07:58:00,